createdAt,value
2022-12-04T00:01:44.180Z,10.39
2022-12-04T00:04:12.495Z,10.45
2022-12-04T00:06:40.681Z,10.45
2022-12-04T00:09:08.917Z,10.49
2022-12-04T00:12:14.281Z,10.55
2022-12-04T00:15:16.300Z,10.56
2022-12-04T00:17:10.704Z,10.55
2022-12-04T00:20:16.059Z,10.5
2022-12-04T00:22:44.343Z,10.49
2022-12-04T00:25:12.500Z,10.43
2022-12-04T00:27:40.802Z,10.42
2022-12-04T00:30:08.980Z,10.35
2022-12-04T00:33:14.349Z,10.35
2022-12-04T00:35:42.584Z,10.35
2022-12-04T00:38:10.824Z,10.3
2022-12-04T00:41:16.109Z,10.29
2022-12-04T00:43:44.401Z,10.29
2022-12-04T00:46:12.657Z,10.34
2022-12-04T00:49:09.761Z,10.45
2022-12-04T00:52:15.070Z,10.54
2022-12-04T00:54:43.292Z,10.59
2022-12-04T00:57:11.541Z,10.59
2022-12-04T00:59:39.763Z,10.57
2022-12-04T01:02:08.074Z,10.56
2022-12-04T01:05:13.330Z,10.5
2022-12-04T01:07:41.681Z,10.5
2022-12-04T01:10:09.848Z,10.42
2022-12-04T01:13:15.145Z,10.39
2022-12-04T01:15:43.418Z,10.36
2022-12-04T01:18:11.652Z,10.27
2022-12-04T01:20:39.902Z,10.26
2022-12-04T01:23:08.140Z,10.24
2022-12-04T01:26:13.435Z,10.25
2022-12-04T01:28:41.688Z,10.24
2022-12-04T01:31:10.087Z,10.22
2022-12-04T01:34:15.284Z,10.25
2022-12-04T01:36:43.522Z,10.25
2022-12-04T01:39:11.783Z,10.28
2022-12-04T01:41:40.009Z,10.28
2022-12-04T01:44:08.280Z,10.33
2022-12-04T01:47:13.576Z,10.3
2022-12-04T01:49:33.602Z,10.3
2022-12-04T01:52:01.854Z,10.26
2022-12-04T01:55:07.157Z,10.22
2022-12-04T01:58:12.474Z,10.17
2022-12-04T02:00:40.749Z,10.14
2022-12-04T02:03:09.039Z,10.06
2022-12-04T02:06:14.299Z,10.07
2022-12-04T02:08:42.547Z,10.06
2022-12-04T02:11:10.786Z,10.07
2022-12-04T02:14:16.093Z,10.06
2022-12-04T02:16:44.406Z,10.07
2022-12-04T02:19:12.611Z,10.16
2022-12-04T02:21:40.840Z,10.16
2022-12-04T02:24:09.091Z,10.09
2022-12-04T02:27:14.355Z,10.21
2022-12-04T02:29:42.654Z,10.22
2022-12-04T02:32:10.890Z,10.22
2022-12-04T02:35:16.189Z,10.21
2022-12-04T02:37:44.436Z,10.21
2022-12-04T02:40:12.728Z,10.17
2022-12-04T02:42:40.926Z,10.18
2022-12-04T02:45:09.204Z,10.05
2022-12-04T02:48:14.478Z,10.13
2022-12-04T02:51:19.798Z,10.1
2022-12-04T02:53:39.873Z,10.07
2022-12-04T02:56:08.106Z,10.07
2022-12-04T02:59:13.393Z,10.16
2022-12-04T03:01:41.755Z,10.17
2022-12-04T03:04:09.937Z,10.17
2022-12-04T03:07:15.257Z,10.18
2022-12-04T03:09:43.440Z,10.18
2022-12-04T03:12:11.744Z,10.2
2022-12-04T03:14:39.934Z,10.2
2022-12-04T03:17:08.297Z,10.18
2022-12-04T03:20:13.517Z,10.24
2022-12-04T03:22:41.755Z,10.25
2022-12-04T03:25:10.029Z,10.17
2022-12-04T03:28:15.340Z,10.16
2022-12-04T03:30:43.640Z,10.14
2022-12-04T03:33:11.813Z,10.1
2022-12-04T03:35:40.099Z,10.1
2022-12-04T03:38:08.340Z,10.02
2022-12-04T03:41:13.637Z,10.04
2022-12-04T03:43:41.880Z,10.04
2022-12-04T03:46:10.241Z,10.08
2022-12-04T03:49:07.234Z,10.1
2022-12-04T03:52:12.546Z,10.18
2022-12-04T03:54:40.793Z,10.21
2022-12-04T03:57:09.069Z,10.1
2022-12-04T04:00:14.364Z,10.22
2022-12-04T04:02:42.683Z,10.22
2022-12-04T04:05:10.816Z,10.21
2022-12-04T04:08:16.180Z,10.2
2022-12-04T04:10:44.395Z,10.18
2022-12-04T04:13:12.622Z,10.17
2022-12-04T04:15:40.885Z,10.18
2022-12-04T04:18:09.143Z,10.05
2022-12-04T04:21:14.453Z,10.05
2022-12-04T04:23:42.683Z,10.03
2022-12-04T04:26:10.932Z,10.01
2022-12-04T04:28:39.168Z,10.02
2022-12-04T04:31:07.454Z,10.1
2022-12-04T04:34:12.736Z,10.17
2022-12-04T04:36:40.982Z,10.2
2022-12-04T04:39:09.276Z,10.14
2022-12-04T04:42:14.573Z,10.24
2022-12-04T04:44:42.798Z,10.22
2022-12-04T04:47:11.035Z,10.24
2022-12-04T04:50:16.341Z,10.22
2022-12-04T04:52:36.422Z,10.22
2022-12-04T04:55:04.633Z,10.18
2022-12-04T04:58:09.999Z,10.14
2022-12-04T05:01:15.389Z,10.12
2022-12-04T05:03:43.536Z,10.1
2022-12-04T05:06:11.812Z,10.08
2022-12-04T05:08:40.035Z,10.06
2022-12-04T05:11:08.276Z,10.03
2022-12-04T05:14:13.559Z,10.08
2022-12-04T05:16:41.922Z,10.09
2022-12-04T05:19:10.050Z,10.14
2022-12-04T05:22:15.381Z,10.13
2022-12-04T05:24:43.649Z,10.13
2022-12-04T05:27:11.900Z,10.1
2022-12-04T05:29:40.100Z,10.1
2022-12-04T05:32:08.390Z,10.14
2022-12-04T05:35:13.663Z,10.14
2022-12-04T05:37:41.908Z,10.14
2022-12-04T05:40:10.189Z,10.13
2022-12-04T05:43:15.489Z,10.1
2022-12-04T05:45:43.756Z,10.08
2022-12-04T05:48:12.040Z,10.01
2022-12-04T05:51:09.112Z,9.96
2022-12-04T05:54:14.364Z,9.92
2022-12-04T05:56:42.693Z,9.92
2022-12-04T05:59:10.898Z,9.97
2022-12-04T06:02:16.247Z,10.04
2022-12-04T06:04:44.443Z,10.06
2022-12-04T06:07:12.714Z,10.09
2022-12-04T06:09:40.958Z,10.1
2022-12-04T06:12:09.184Z,10.05
2022-12-04T06:15:14.548Z,10.1
2022-12-04T06:17:42.777Z,10.12
2022-12-04T06:20:11.863Z,10.12
2022-12-04T06:22:39.290Z,10.12
2022-12-04T06:25:07.478Z,10.08
2022-12-04T06:28:12.826Z,10.03
2022-12-04T06:30:41.068Z,10.02
2022-12-04T06:33:09.262Z,9.89
2022-12-04T06:36:14.598Z,9.93
2022-12-04T06:38:42.872Z,9.92
2022-12-04T06:41:11.115Z,9.89
2022-12-04T06:44:16.403Z,9.93
2022-12-04T06:46:47.024Z,9.97
2022-12-04T06:49:12.897Z,10.04
2022-12-04T06:51:32.934Z,10.02
2022-12-04T06:54:01.235Z,10.04
2022-12-04T06:57:06.532Z,10.08
2022-12-04T07:00:11.813Z,10.09
2022-12-04T07:02:40.142Z,10.09
2022-12-04T07:05:08.311Z,10.08
2022-12-04T07:08:13.753Z,10.04
2022-12-04T07:10:41.898Z,10.04
2022-12-04T07:13:10.164Z,10
2022-12-04T07:16:15.490Z,9.96
2022-12-04T07:18:43.732Z,9.96
2022-12-04T07:21:11.944Z,9.97
2022-12-04T07:23:40.189Z,10.43
2022-12-04T07:26:45.477Z,9.96
2022-12-04T07:29:13.751Z,9.97
2022-12-04T07:31:42.037Z,9.99
2022-12-04T07:34:10.235Z,10.01
2022-12-04T07:37:15.539Z,10.04
2022-12-04T07:39:43.774Z,10.05
2022-12-04T07:42:12.026Z,10.1
2022-12-04T07:44:40.296Z,9.95
2022-12-04T07:47:45.568Z,10.07
2022-12-04T07:50:13.842Z,10.04
2022-12-04T07:52:33.863Z,10.04
2022-12-04T07:55:02.142Z,10.03
2022-12-04T07:58:07.417Z,9.97
2022-12-04T08:01:12.866Z,9.93
2022-12-04T08:03:45.427Z,9.93
2022-12-04T08:06:09.273Z,9.83
2022-12-04T08:09:14.571Z,9.92
2022-12-04T08:11:42.788Z,9.93
2022-12-04T08:14:11.032Z,9.99
2022-12-04T08:17:16.409Z,10.07
2022-12-04T08:19:44.622Z,10.1
2022-12-04T08:22:12.830Z,10.12
2022-12-04T08:24:41.116Z,10.14
2022-12-04T08:27:09.340Z,10.01
2022-12-04T08:30:14.670Z,10.1
2022-12-04T08:32:42.903Z,10.1
2022-12-04T08:35:11.155Z,10.08
2022-12-04T08:38:16.468Z,10.06
2022-12-04T08:40:44.770Z,10.05
2022-12-04T08:43:12.976Z,10.01
2022-12-04T08:45:41.187Z,10.07
2022-12-04T08:48:46.487Z,10
2022-12-04T08:51:14.782Z,10
2022-12-04T08:53:34.797Z,10
2022-12-04T08:56:03.028Z,10.06
2022-12-04T08:59:08.393Z,10.1
2022-12-04T09:02:13.668Z,10.13
2022-12-04T09:04:41.973Z,10.14
2022-12-04T09:07:10.201Z,10.18
2022-12-04T09:10:15.540Z,10.14
2022-12-04T09:12:43.808Z,10.14
2022-12-04T09:15:12.003Z,10.14
2022-12-04T09:17:40.238Z,10.01
2022-12-04T09:20:45.553Z,10.05
2022-12-04T09:23:13.793Z,10.01
2022-12-04T09:25:42.029Z,10
2022-12-04T09:28:10.252Z,10.02
2022-12-04T09:31:15.613Z,10.04
2022-12-04T09:33:43.851Z,10.05
2022-12-04T09:36:12.126Z,10.03
2022-12-04T09:38:40.346Z,10.08
2022-12-04T09:41:08.575Z,10.13
2022-12-04T09:44:13.914Z,10.13
2022-12-04T09:46:42.605Z,10.14
2022-12-04T09:49:10.395Z,10.17
2022-12-04T09:51:38.617Z,10.18
2022-12-04T09:53:58.707Z,10.14
2022-12-04T09:57:04.000Z,10.16
2022-12-04T10:00:09.292Z,10.05
2022-12-04T10:03:14.670Z,10.13
2022-12-04T10:05:42.875Z,10.13
2022-12-04T10:08:11.145Z,10.05
2022-12-04T10:10:39.386Z,10.07
2022-12-04T10:13:07.617Z,10.08
2022-12-04T10:16:12.936Z,10.07
2022-12-04T10:18:41.136Z,10.1
2022-12-04T10:21:09.439Z,10.09
2022-12-04T10:24:14.695Z,10.07
2022-12-04T10:26:42.982Z,10.06
2022-12-04T10:29:11.205Z,10.09
2022-12-04T10:32:16.539Z,10.1
2022-12-04T10:34:45.847Z,10.13
2022-12-04T10:37:13.012Z,10.14
2022-12-04T10:39:41.211Z,10.05
2022-12-04T10:42:09.506Z,10.08
2022-12-04T10:45:51.873Z,10.14
2022-12-04T10:48:57.241Z,10.13
2022-12-04T10:53:16.631Z,10.1
2022-12-04T10:55:36.669Z,10.09
2022-12-04T10:58:04.910Z,10.1
2022-12-04T11:01:10.212Z,10.05
2022-12-04T11:04:15.539Z,10.09
2022-12-04T11:06:43.788Z,10.09
2022-12-04T11:09:12.047Z,10.22
2022-12-04T11:11:40.253Z,10.14
2022-12-04T11:14:47.103Z,10.13
2022-12-04T11:17:13.802Z,10.14
2022-12-04T11:19:42.082Z,10.16
2022-12-04T11:22:10.326Z,10.13
2022-12-04T11:25:15.638Z,10.13
2022-12-04T11:27:43.913Z,10.14
2022-12-04T11:30:12.212Z,10.09
2022-12-04T11:32:40.383Z,10.09
2022-12-04T11:35:08.620Z,10.05
2022-12-04T11:38:13.969Z,9.97
2022-12-04T11:40:42.199Z,9.97
2022-12-04T11:43:10.393Z,10.1
2022-12-04T11:46:15.736Z,10.17
2022-12-04T11:48:43.967Z,10.17
2022-12-04T11:51:12.264Z,10.28
2022-12-04T11:53:32.250Z,10.25
2022-12-04T11:56:00.533Z,10.3
2022-12-04T11:59:05.843Z,10.31
2022-12-04T12:02:11.233Z,10.33
2022-12-04T12:05:16.479Z,10.33
2022-12-04T12:07:44.796Z,10.3
2022-12-04T12:10:12.982Z,10.28
2022-12-04T12:12:41.264Z,10.14
2022-12-04T12:15:46.537Z,10.22
2022-12-04T12:18:16.390Z,10.18
2022-12-04T12:20:43.069Z,10.18
2022-12-04T12:23:11.273Z,10.2
2022-12-04T12:26:16.580Z,10.22
2022-12-04T12:28:44.818Z,10.21
2022-12-04T12:31:13.030Z,10.26
2022-12-04T12:33:41.335Z,10.26
2022-12-04T12:36:09.585Z,10.32
2022-12-04T12:39:51.919Z,10.34
2022-12-04T12:42:58.555Z,10.34
2022-12-04T12:46:02.617Z,10.3
2022-12-04T12:49:07.892Z,10.32
2022-12-04T12:52:13.163Z,10.29
2022-12-04T12:54:33.207Z,10.31
2022-12-04T12:57:01.493Z,10.2
2022-12-04T13:00:06.782Z,10.14
2022-12-04T13:03:12.091Z,10.12
2022-12-04T13:05:40.348Z,10.13
2022-12-04T13:08:08.664Z,10.1
2022-12-04T13:11:13.898Z,10.12
2022-12-04T13:13:42.187Z,10.14
2022-12-04T13:16:10.515Z,10.22
2022-12-04T13:19:15.739Z,10.24
2022-12-04T13:21:43.955Z,10.25
2022-12-04T13:24:12.208Z,10.29
2022-12-04T13:26:42.585Z,10.28
2022-12-04T13:29:08.681Z,10.27
2022-12-04T13:32:14.064Z,10.29
2022-12-04T13:34:42.253Z,10.27
2022-12-04T13:37:10.485Z,10.25
2022-12-04T13:40:15.808Z,10.22
2022-12-04T13:42:44.052Z,10.21
2022-12-04T13:45:12.312Z,10.18
2022-12-04T13:47:40.553Z,10.17
2022-12-04T13:50:08.819Z,10.18
2022-12-04T13:53:05.946Z,10.22
2022-12-04T13:56:14.911Z,10.33
2022-12-04T13:58:39.493Z,10.34
2022-12-04T14:01:07.817Z,10.32
2022-12-04T14:04:13.040Z,10.33
2022-12-04T14:06:41.251Z,10.34
2022-12-04T14:09:09.501Z,10.37
2022-12-04T14:12:51.917Z,10.29
2022-12-04T14:15:57.215Z,10.3
2022-12-04T14:19:02.507Z,10.27
2022-12-04T14:22:07.859Z,10.22
2022-12-04T14:25:13.119Z,10.2
2022-12-04T14:27:41.370Z,10.22
2022-12-04T14:30:09.635Z,10.14
2022-12-04T14:33:14.967Z,10.13
2022-12-04T14:36:57.319Z,10.16
2022-12-04T14:40:02.594Z,10.21
2022-12-04T14:43:07.930Z,10.28
2022-12-04T14:45:36.168Z,10.32
2022-12-04T14:48:04.427Z,10.33
2022-12-04T14:51:09.711Z,10.32
2022-12-04T14:54:06.865Z,10.29
2022-12-04T14:57:12.202Z,10.28
2022-12-04T14:59:40.378Z,10.25
2022-12-04T15:02:08.633Z,10.22
2022-12-04T15:05:13.971Z,10.22
2022-12-04T15:07:42.263Z,10.21
2022-12-04T15:10:10.447Z,10.17
2022-12-04T15:13:18.541Z,10.14
2022-12-04T15:15:44.109Z,10.13
2022-12-04T15:18:12.238Z,10.1
2022-12-04T15:20:40.493Z,10.09
2022-12-04T15:23:08.734Z,10.09
2022-12-04T15:26:14.068Z,10.09
2022-12-04T15:28:42.295Z,10.08
2022-12-04T15:31:10.576Z,10.13
2022-12-04T15:34:15.862Z,10.18
2022-12-04T15:36:44.168Z,10.18
2022-12-04T15:39:12.339Z,10.12
2022-12-04T15:41:40.590Z,10.12
2022-12-04T15:44:08.834Z,10.1
2022-12-04T15:47:14.233Z,10.06
2022-12-04T15:49:42.430Z,10.04
2022-12-04T15:52:10.703Z,10.09
2022-12-04T15:55:15.966Z,10.04
2022-12-04T15:57:44.218Z,10.03
2022-12-04T16:00:12.532Z,9.97
2022-12-04T16:02:40.731Z,9.97
2022-12-04T16:05:00.980Z,10
2022-12-04T16:08:06.194Z,9.99
2022-12-04T16:11:11.377Z,10.04
2022-12-04T16:13:39.618Z,10.04
2022-12-04T16:16:07.956Z,10.05
2022-12-04T16:19:13.210Z,10.07
2022-12-04T16:21:41.433Z,10.07
2022-12-04T16:24:09.678Z,9.99
2022-12-04T16:27:15.026Z,10.05
2022-12-04T16:29:43.275Z,10.07
2022-12-04T16:32:11.545Z,10.1
2022-12-04T16:35:16.810Z,10.13
2022-12-04T16:37:45.070Z,10.12
2022-12-04T16:40:13.286Z,10.05
2022-12-04T16:42:41.537Z,10.02
2022-12-04T16:45:09.773Z,9.97
2022-12-04T16:48:15.087Z,9.89
2022-12-04T16:50:43.354Z,9.87
2022-12-04T16:53:11.619Z,9.93
2022-12-04T16:56:53.977Z,10.01
2022-12-04T16:59:59.477Z,10.01
2022-12-04T17:03:04.609Z,10.01
2022-12-04T17:06:01.737Z,10.03
2022-12-04T17:09:07.020Z,10.08
2022-12-04T17:12:12.321Z,10.07
2022-12-04T17:14:40.555Z,10.05
2022-12-04T17:17:08.811Z,9.92
2022-12-04T17:21:18.990Z,9.89
2022-12-04T17:22:42.339Z,9.91
2022-12-04T17:25:10.635Z,9.91
2022-12-04T17:28:15.965Z,9.93
2022-12-04T17:30:44.258Z,9.92
2022-12-04T17:33:12.411Z,9.97
2022-12-04T17:35:40.651Z,10.01
2022-12-04T17:38:08.912Z,10.03
2022-12-04T17:41:14.240Z,10.1
2022-12-04T17:43:42.455Z,10.1
2022-12-04T17:46:10.739Z,10.12
2022-12-04T17:48:38.992Z,10.04
2022-12-04T17:51:07.239Z,9.96
2022-12-04T17:54:12.591Z,9.89
2022-12-04T17:56:44.659Z,9.87
2022-12-04T17:59:08.986Z,9.89
2022-12-04T18:02:14.338Z,9.97
2022-12-04T18:04:42.614Z,9.99
2022-12-04T18:07:02.610Z,9.97
2022-12-04T18:10:07.949Z,9.85
2022-12-04T18:13:13.290Z,9.85
2022-12-04T18:15:41.510Z,9.89
2022-12-04T18:18:09.723Z,9.93
2022-12-04T18:21:15.050Z,9.99
2022-12-04T18:23:43.320Z,10.02
2022-12-04T18:26:11.540Z,10.05
2022-12-04T18:28:39.799Z,10.08
2022-12-04T18:31:08.010Z,10.1
2022-12-04T18:34:13.379Z,10.12
2022-12-04T18:36:41.611Z,10.13
2022-12-04T18:39:09.823Z,10.08
2022-12-04T18:42:15.163Z,10.09
2022-12-04T18:44:43.409Z,10.07
2022-12-04T18:47:11.706Z,10.01
2022-12-04T18:50:16.938Z,9.97
2022-12-04T18:52:45.198Z,9.97
2022-12-04T18:55:13.437Z,9.91
2022-12-04T18:57:41.710Z,9.92
2022-12-04T19:00:10.001Z,10
2022-12-04T19:03:15.271Z,10.02
2022-12-04T19:05:43.628Z,10.02
2022-12-04T19:08:11.874Z,10.08
2022-12-04T19:10:41.069Z,10.08
2022-12-04T19:13:08.240Z,10.09
2022-12-04T19:16:13.609Z,10.1
2022-12-04T19:18:33.611Z,10.1
2022-12-04T19:21:01.874Z,10.03
2022-12-04T19:24:07.189Z,10
2022-12-04T19:27:12.625Z,9.97
2022-12-04T19:29:40.781Z,9.97
2022-12-04T19:32:09.089Z,9.95
2022-12-04T19:35:14.336Z,9.95
2022-12-04T19:37:44.776Z,9.92
2022-12-04T19:40:10.740Z,9.96
2022-12-04T19:43:16.073Z,9.97
2022-12-04T19:45:44.355Z,9.97
2022-12-04T19:48:12.559Z,10.01
2022-12-04T19:50:40.876Z,10.03
2022-12-04T19:53:09.099Z,9.96
2022-12-04T19:56:14.434Z,10.12
2022-12-04T19:58:42.696Z,10.12
2022-12-04T20:01:11.008Z,10.09
2022-12-04T20:03:39.193Z,10.08
2022-12-04T20:06:07.438Z,10.03
2022-12-04T20:09:12.750Z,10
2022-12-04T20:11:40.899Z,10
2022-12-04T20:14:09.183Z,9.93
2022-12-04T20:17:14.720Z,10.06
2022-12-04T20:19:42.770Z,10.03
2022-12-04T20:22:10.997Z,10.05
2022-12-04T20:25:16.331Z,10.07
2022-12-04T20:27:36.413Z,10.07
2022-12-04T20:30:04.655Z,10.13
2022-12-04T20:33:47.040Z,10.17
2022-12-04T20:36:15.221Z,10.18
2022-12-04T20:38:43.439Z,10.18
2022-12-04T20:41:11.682Z,10.14
2022-12-04T20:43:39.960Z,10.14
2022-12-04T20:46:08.278Z,10.07
2022-12-04T20:49:19.038Z,10.02
2022-12-04T20:51:41.842Z,10.02
2022-12-04T20:54:10.035Z,10
2022-12-04T20:57:15.314Z,9.97
2022-12-04T20:59:43.558Z,9.97
2022-12-04T21:02:11.896Z,10.01
2022-12-04T21:04:40.066Z,10.03
2022-12-04T21:07:08.319Z,10.02
2022-12-04T21:10:13.647Z,10.04
2022-12-04T21:12:43.368Z,10.04
2022-12-04T21:15:10.094Z,10.09
2022-12-04T21:18:15.369Z,10.1
2022-12-04T21:20:43.662Z,10.09
2022-12-04T21:23:11.901Z,10.1
2022-12-04T21:25:40.155Z,10.1
2022-12-04T21:28:37.299Z,10.05
2022-12-04T21:31:06.631Z,10
2022-12-04T21:34:10.807Z,9.97
2022-12-04T21:36:39.114Z,9.96
2022-12-04T21:39:07.330Z,9.93
2022-12-04T21:42:12.588Z,9.97
2022-12-04T21:44:40.919Z,10.01
2022-12-04T21:47:46.178Z,9.99
2022-12-04T21:50:14.439Z,10.05
2022-12-04T21:52:42.682Z,10.07
2022-12-04T21:55:10.905Z,10.08
2022-12-04T21:58:16.291Z,10.08
2022-12-04T22:00:44.493Z,10.06
2022-12-04T22:03:12.830Z,9.96
2022-12-04T22:05:40.946Z,9.97
2022-12-04T22:08:09.318Z,9.85
2022-12-04T22:11:14.544Z,9.93
2022-12-04T22:13:42.827Z,9.91
2022-12-04T22:16:11.094Z,9.96
2022-12-04T22:18:39.254Z,9.96
2022-12-04T22:21:07.513Z,9.99
2022-12-04T22:24:12.889Z,10.02
2022-12-04T22:26:41.117Z,10.03
2022-12-04T22:29:33.984Z,9.99
2022-12-04T22:32:06.488Z,10.05
2022-12-04T22:35:11.796Z,10.07
2022-12-04T22:38:17.109Z,10.07
2022-12-04T22:40:45.319Z,10.05
2022-12-04T22:43:13.550Z,10.02
2022-12-04T22:45:41.847Z,10.02
2022-12-04T22:48:10.084Z,9.97
2022-12-04T22:51:15.411Z,9.92
2022-12-04T22:53:43.629Z,9.91
2022-12-04T22:56:11.909Z,9.91
2022-12-04T22:58:40.135Z,9.89
2022-12-04T23:01:08.328Z,9.87
2022-12-04T23:04:13.610Z,9.96
2022-12-04T23:06:41.936Z,9.97
2022-12-04T23:09:10.179Z,10.05
2022-12-04T23:12:15.490Z,10.07
2022-12-04T23:14:43.715Z,10.07
2022-12-04T23:17:12.037Z,10.08
2022-12-04T23:19:40.199Z,10.28
2022-12-04T23:22:45.574Z,10.07
2022-12-04T23:25:13.764Z,10.06
2022-12-04T23:30:02.418Z,10.04
2022-12-04T23:33:07.449Z,9.97
2022-12-04T23:36:12.731Z,9.95
2022-12-04T23:38:40.919Z,9.93
2022-12-04T23:41:09.261Z,9.84
2022-12-04T23:43:37.463Z,9.92
2022-12-04T23:46:10.537Z,9.92
2022-12-04T23:49:11.019Z,9.97
2022-12-04T23:52:16.311Z,10.09
2022-12-04T23:54:44.526Z,10.1
2022-12-04T23:57:12.812Z,10.03
2022-12-04T23:59:41.024Z,10.02
